最新機場天氣預報 (TAF)

TAF VMMC 211100Z 2112/2218 09012KT 8000 FEW015 SCT030 TEMPO 2112/2114 VRB18G28KT 2000 +TSRA FEW010CB SCT020 BKN040 TEMPO 2120/2206 3500 SHRA FEW010CB SCT020 BKN040 PROB40 TEMPO 2122/2203 VRB15G25KT 2000 +TSRA BECMG 2206/2208 VRB03KT=

機場天氣預報電碼經解碼後
報告內容 編碼 意義
報告種類之識別 TAF 機場天氣預報
機場代碼 VMMC 中國澳門
發出的日期及時間 211100Z 21/05/2019 11:00 國際時
有效的日期及時間 2112/2218 由 21日 12:00 國際時 至 22日 18:00 國際時
地面風 09012KT 平均風向 090 度, 風速 12 海里
能見度 8000 8 公里
天氣狀況    
雲層狀況/雲層高度 FEW015 SCT030 雲量 1-2份, 雲底 1500 呎;
雲量 3-4份, 雲底 3000 呎
在有效時段內以下一或多項要素將有顯著改變TEMPO 2112/2114 VRB18G28KT 2000 +TSRA FEW010CB SCT020 BKN040間中發生 由 21日 12:00 國際時 至 21日 14:00 國際時
風: 無定向, 風速 18 海里; 陣風 28 海里
能見度: 2000 米
天氣: 大雷暴夾雨
雲: 雲量 1-2份 積雨雲, 雲底 1000 呎; 雲量 3-4份, 雲底 2000 呎; 雲量 5-7份, 雲底 4000 呎
 TEMPO 2120/2206 3500 SHRA FEW010CB SCT020 BKN040間中發生 由 21日 20:00 國際時 至 22日 06:00 國際時
能見度: 3500 米
天氣: 驟雨
雲: 雲量 1-2份 積雨雲, 雲底 1000 呎; 雲量 3-4份, 雲底 2000 呎; 雲量 5-7份, 雲底 4000 呎
 PROB40 TEMPO 2122/2203 VRB15G25KT 2000 +TSRA可能性百分之四十, 間中發生 由 21日 22:00 國際時 至 22日 03:00 國際時
風: 無定向, 風速 15 海里; 陣風 25 海里
能見度: 2000 米
天氣: 大雷暴夾雨
 BECMG 2206/2208 VRB03KT逐漸轉變 由 22日 06:00 國際時 至 22日 08:00 國際時
風: 無定向, 風速 3 海里

其他國際機場:
天氣預報 (TAF)   天氣報告 (METAR)